sensor_id;sensor_type;location;lat;lon;timestamp;pressure;altitude;pressure_sealevel;temperature;humidity
22649;BME280;11491;41.942;24.220;2022-11-11T00:01:41;90922.09;;;3.56;80.98
22649;BME280;11491;41.942;24.220;2022-11-11T00:04:08;90917.94;;;3.45;80.95
22649;BME280;11491;41.942;24.220;2022-11-11T00:06:36;90914.25;;;3.46;80.87
22649;BME280;11491;41.942;24.220;2022-11-11T00:09:02;90916.84;;;3.51;81.61
22649;BME280;11491;41.942;24.220;2022-11-11T00:11:29;90914.31;;;3.36;81.50
22649;BME280;11491;41.942;24.220;2022-11-11T00:13:56;90923.28;;;3.35;81.33
22649;BME280;11491;41.942;24.220;2022-11-11T00:16:23;90924.47;;;3.18;82.02
22649;BME280;11491;41.942;24.220;2022-11-11T00:18:49;90921.81;;;3.18;83.10
22649;BME280;11491;41.942;24.220;2022-11-11T00:21:33;90923.34;;;3.24;82.72
22649;BME280;11491;41.942;24.220;2022-11-11T00:24:30;90919.63;;;3.31;81.97
22649;BME280;11491;41.942;24.220;2022-11-11T00:27:15;90914.28;;;3.41;82.02
22649;BME280;11491;41.942;24.220;2022-11-11T00:29:45;90900.06;;;3.32;81.72
22649;BME280;11491;41.942;24.220;2022-11-11T00:32:12;90912.63;;;3.45;81.30
22649;BME280;11491;41.942;24.220;2022-11-11T00:34:56;90904.81;;;3.30;81.51
22649;BME280;11491;41.942;24.220;2022-11-11T00:37:42;90906.47;;;3.20;81.71
22649;BME280;11491;41.942;24.220;2022-11-11T00:40:12;90917.03;;;3.20;83.03
22649;BME280;11491;41.942;24.220;2022-11-11T00:42:39;90911.50;;;3.17;82.49
22649;BME280;11491;41.942;24.220;2022-11-11T00:45:07;90920.53;;;3.16;82.74
22649;BME280;11491;41.942;24.220;2022-11-11T00:47:34;90909.88;;;3.26;82.62
22649;BME280;11491;41.942;24.220;2022-11-11T00:50:20;90908.31;;;3.20;82.57
22649;BME280;11491;41.942;24.220;2022-11-11T00:53:09;90905.13;;;3.28;81.80
22649;BME280;11491;41.942;24.220;2022-11-11T00:55:37;90913.81;;;3.29;81.68
22649;BME280;11491;41.942;24.220;2022-11-11T00:58:04;90910.72;;;3.16;82.70
22649;BME280;11491;41.942;24.220;2022-11-11T01:00:31;90911.22;;;3.23;82.58
22649;BME280;11491;41.942;24.220;2022-11-11T01:02:58;90918.56;;;3.32;82.11
22649;BME280;11491;41.942;24.220;2022-11-11T01:05:25;90909.44;;;3.14;82.29
22649;BME280;11491;41.942;24.220;2022-11-11T01:07:52;90914.84;;;3.33;81.39
22649;BME280;11491;41.942;24.220;2022-11-11T01:10:21;90912.00;;;3.24;81.57
22649;BME280;11491;41.942;24.220;2022-11-11T01:13:15;90912.44;;;2.97;82.38
22649;BME280;11491;41.942;24.220;2022-11-11T01:15:44;90916.09;;;3.06;82.80
22649;BME280;11491;41.942;24.220;2022-11-11T01:18:13;90918.19;;;3.04;83.17
22649;BME280;11491;41.942;24.220;2022-11-11T01:20:40;90907.56;;;3.14;82.80
22649;BME280;11491;41.942;24.220;2022-11-11T01:23:09;90899.91;;;3.13;82.74
22649;BME280;11491;41.942;24.220;2022-11-11T01:25:38;90909.13;;;3.15;82.38
22649;BME280;11491;41.942;24.220;2022-11-11T01:28:05;90899.66;;;3.09;82.45
22649;BME280;11491;41.942;24.220;2022-11-11T01:30:34;90900.34;;;3.25;81.61
22649;BME280;11491;41.942;24.220;2022-11-11T01:33:02;90890.69;;;3.05;81.56
22649;BME280;11491;41.942;24.220;2022-11-11T01:35:29;90895.44;;;3.13;81.52
22649;BME280;11491;41.942;24.220;2022-11-11T01:37:55;90895.38;;;3.23;80.90
22649;BME280;11491;41.942;24.220;2022-11-11T01:40:22;90892.50;;;3.15;80.84
22649;BME280;11491;41.942;24.220;2022-11-11T01:42:50;90888.06;;;3.05;81.00
22649;BME280;11491;41.942;24.220;2022-11-11T01:48:32;90891.88;;;2.89;82.01
22649;BME280;11491;41.942;24.220;2022-11-11T01:51:22;90908.75;;;2.88;81.49
22649;BME280;11491;41.942;24.220;2022-11-11T01:53:54;90898.50;;;2.81;81.61
22649;BME280;11491;41.942;24.220;2022-11-11T01:56:25;90900.81;;;2.93;81.87
22649;BME280;11491;41.942;24.220;2022-11-11T01:58:54;90906.59;;;3.00;81.02
22649;BME280;11491;41.942;24.220;2022-11-11T02:01:21;90911.69;;;2.86;80.45
22649;BME280;11491;41.942;24.220;2022-11-11T02:03:52;90908.75;;;2.88;81.09
22649;BME280;11491;41.942;24.220;2022-11-11T02:06:38;90910.69;;;2.72;81.98
22649;BME280;11491;41.942;24.220;2022-11-11T02:09:06;90913.09;;;2.63;82.77
22649;BME280;11491;41.942;24.220;2022-11-11T02:11:34;90918.09;;;2.70;82.14
22649;BME280;11491;41.942;24.220;2022-11-11T02:14:19;90912.63;;;2.56;83.33
22649;BME280;11491;41.942;24.220;2022-11-11T02:17:02;90907.34;;;2.46;83.58
22649;BME280;11491;41.942;24.220;2022-11-11T02:19:38;90920.25;;;2.63;82.72
22649;BME280;11491;41.942;24.220;2022-11-11T02:22:11;90922.91;;;2.57;83.04
22649;BME280;11491;41.942;24.220;2022-11-11T02:24:41;90917.91;;;2.56;82.52
22649;BME280;11491;41.942;24.220;2022-11-11T02:27:09;90925.81;;;2.51;82.58
22649;BME280;11491;41.942;24.220;2022-11-11T02:29:37;90925.81;;;2.51;82.59
22649;BME280;11491;41.942;24.220;2022-11-11T02:32:04;90936.38;;;2.61;82.80
22649;BME280;11491;41.942;24.220;2022-11-11T02:34:32;90933.75;;;2.56;82.57
22649;BME280;11491;41.942;24.220;2022-11-11T02:37:00;90930.06;;;2.47;82.67
22649;BME280;11491;41.942;24.220;2022-11-11T02:39:29;90932.72;;;2.42;83.43
22649;BME280;11491;41.942;24.220;2022-11-11T02:41:57;90924.00;;;2.46;83.18
22649;BME280;11491;41.942;24.220;2022-11-11T02:44:25;90930.59;;;2.54;83.24
22649;BME280;11491;41.942;24.220;2022-11-11T02:46:52;90934.25;;;2.53;83.27
22649;BME280;11491;41.942;24.220;2022-11-11T02:49:19;90937.94;;;2.62;83.08
22649;BME280;11491;41.942;24.220;2022-11-11T02:51:45;90929.25;;;2.56;82.99
22649;BME280;11491;41.942;24.220;2022-11-11T02:54:13;90930.53;;;2.64;83.78
22649;BME280;11491;41.942;24.220;2022-11-11T02:56:39;90932.06;;;2.75;82.81
22649;BME280;11491;41.942;24.220;2022-11-11T02:59:24;90928.41;;;2.71;82.71
22649;BME280;11491;41.942;24.220;2022-11-11T03:01:51;90937.88;;;2.77;82.61
22649;BME280;11491;41.942;24.220;2022-11-11T03:04:18;90932.09;;;2.65;83.07
22649;BME280;11491;41.942;24.220;2022-11-11T03:06:45;90934.03;;;2.49;84.39
22649;BME280;11491;41.942;24.220;2022-11-11T03:09:11;90931.31;;;2.65;84.69
22649;BME280;11491;41.942;24.220;2022-11-11T03:11:38;90930.53;;;2.69;84.69
22649;BME280;11491;41.942;24.220;2022-11-11T03:14:05;90927.28;;;2.83;84.88
22649;BME280;11491;41.942;24.220;2022-11-11T03:16:34;90927.75;;;2.95;84.71
22649;BME280;11491;41.942;24.220;2022-11-11T03:19:19;90925.72;;;2.82;84.87
22649;BME280;11491;41.942;24.220;2022-11-11T03:21:46;90929.38;;;2.91;84.84
22649;BME280;11491;41.942;24.220;2022-11-11T03:24:11;90930.38;;;3.00;85.29
22649;BME280;11491;41.942;24.220;2022-11-11T03:26:38;90927.16;;;3.03;85.43
22649;BME280;11491;41.942;24.220;2022-11-11T03:29:05;90922.16;;;3.07;84.97
22649;BME280;11491;41.942;24.220;2022-11-11T03:31:31;90917.59;;;3.17;84.68
22649;BME280;11491;41.942;24.220;2022-11-11T03:34:00;90926.00;;;3.24;84.87
22649;BME280;11491;41.942;24.220;2022-11-11T03:36:42;90920.38;;;3.36;85.43
22649;BME280;11491;41.942;24.220;2022-11-11T03:39:26;90917.94;;;3.45;85.10
22649;BME280;11491;41.942;24.220;2022-11-11T03:41:53;90920.50;;;3.60;85.35
22649;BME280;11491;41.942;24.220;2022-11-11T03:44:20;90915.66;;;3.67;84.47
22649;BME280;11491;41.942;24.220;2022-11-11T03:46:49;90912.44;;;3.76;83.48
22649;BME280;11491;41.942;24.220;2022-11-11T03:49:18;90911.81;;;3.84;82.65
22649;BME280;11491;41.942;24.220;2022-11-11T03:51:44;90914.00;;;3.77;82.86
22649;BME280;11491;41.942;24.220;2022-11-11T03:54:11;90918.50;;;3.76;83.37
22649;BME280;11491;41.942;24.220;2022-11-11T03:56:38;90900.81;;;3.72;83.74
22649;BME280;11491;41.942;24.220;2022-11-11T03:59:04;90918.88;;;3.94;83.26
22649;BME280;11491;41.942;24.220;2022-11-11T04:01:31;90904.25;;;4.01;82.78
22649;BME280;11491;41.942;24.220;2022-11-11T04:04:15;90904.94;;;4.12;82.34
22649;BME280;11491;41.942;24.220;2022-11-11T04:07:00;90911.09;;;4.07;82.06
22649;BME280;11491;41.942;24.220;2022-11-11T04:09:44;90910.59;;;4.05;82.11
22649;BME280;11491;41.942;24.220;2022-11-11T04:12:29;90906.84;;;4.06;82.39
22649;BME280;11491;41.942;24.220;2022-11-11T04:15:17;90904.72;;;4.08;82.06
22649;BME280;11491;41.942;24.220;2022-11-11T04:18:01;90912.16;;;4.06;82.94
22649;BME280;11491;41.942;24.220;2022-11-11T04:20:27;90917.44;;;4.06;82.53
22649;BME280;11491;41.942;24.220;2022-11-11T04:23:09;90928.50;;;4.14;83.18
22649;BME280;11491;41.942;24.220;2022-11-11T04:25:36;90915.25;;;4.14;82.73
22649;BME280;11491;41.942;24.220;2022-11-11T04:28:14;90911.59;;;4.09;83.36
22649;BME280;11491;41.942;24.220;2022-11-11T04:31:09;90917.69;;;4.10;84.63
22649;BME280;11491;41.942;24.220;2022-11-11T04:33:36;90912.16;;;4.06;84.38
22649;BME280;11491;41.942;24.220;2022-11-11T04:36:02;90916.34;;;4.13;84.21
22649;BME280;11491;41.942;24.220;2022-11-11T04:38:30;90917.34;;;4.17;84.27
22649;BME280;11491;41.942;24.220;2022-11-11T04:41:15;90923.66;;;4.21;83.57
22649;BME280;11491;41.942;24.220;2022-11-11T04:43:42;90923.66;;;4.21;83.67
22649;BME280;11491;41.942;24.220;2022-11-11T04:46:26;90924.22;;;4.18;83.36
22649;BME280;11491;41.942;24.220;2022-11-11T04:48:52;90933.41;;;4.25;84.44
22649;BME280;11491;41.942;24.220;2022-11-11T04:51:19;90919.41;;;4.25;84.52
22649;BME280;11491;41.942;24.220;2022-11-11T04:54:07;90927.03;;;4.26;84.59
22649;BME280;11491;41.942;24.220;2022-11-11T04:56:34;90930.63;;;4.12;85.37
22649;BME280;11491;41.942;24.220;2022-11-11T04:59:15;90928.03;;;4.06;87.89
22649;BME280;11491;41.942;24.220;2022-11-11T05:01:42;90935.44;;;4.04;88.49
22649;BME280;11491;41.942;24.220;2022-11-11T05:04:26;90940.22;;;4.07;88.30
22649;BME280;11491;41.942;24.220;2022-11-11T05:06:53;90923.72;;;4.16;86.79
22649;BME280;11491;41.942;24.220;2022-11-11T05:09:38;90928.41;;;4.24;86.69
22649;BME280;11491;41.942;24.220;2022-11-11T05:12:05;90935.72;;;4.32;86.86
22649;BME280;11491;41.942;24.220;2022-11-11T05:14:32;90936.19;;;4.39;86.84
22649;BME280;11491;41.942;24.220;2022-11-11T05:17:16;90935.06;;;4.45;87.08
22649;BME280;11491;41.942;24.220;2022-11-11T05:20:00;90942.84;;;4.61;86.52
22649;BME280;11491;41.942;24.220;2022-11-11T05:22:44;90949.25;;;4.54;85.86
22649;BME280;11491;41.942;24.220;2022-11-11T05:25:12;90947.13;;;4.57;86.11
22649;BME280;11491;41.942;24.220;2022-11-11T05:27:50;90939.69;;;4.59;86.44
22649;BME280;11491;41.942;24.220;2022-11-11T05:30:19;90945.97;;;4.68;86.86
22649;BME280;11491;41.942;24.220;2022-11-11T05:32:46;90958.75;;;4.61;87.12
22649;BME280;11491;41.942;24.220;2022-11-11T05:35:13;90962.38;;;4.70;86.71
22649;BME280;11491;41.942;24.220;2022-11-11T05:37:41;90953.84;;;4.73;86.35
22649;BME280;11491;41.942;24.220;2022-11-11T05:40:10;90956.44;;;4.78;86.73
22649;BME280;11491;41.942;24.220;2022-11-11T05:42:42;90961.09;;;4.86;87.04
22649;BME280;11491;41.942;24.220;2022-11-11T05:45:09;90956.16;;;4.80;87.34
22649;BME280;11491;41.942;24.220;2022-11-11T05:47:36;90962.69;;;4.87;87.26
22649;BME280;11491;41.942;24.220;2022-11-11T05:50:03;90959.09;;;5.02;87.69
22649;BME280;11491;41.942;24.220;2022-11-11T05:52:30;90970.78;;;5.20;87.63
22649;BME280;11491;41.942;24.220;2022-11-11T05:54:57;90974.59;;;5.33;86.37
22649;BME280;11491;41.942;24.220;2022-11-11T05:57:23;90966.84;;;5.36;86.19
22649;BME280;11491;41.942;24.220;2022-11-11T05:59:51;90968.38;;;5.43;86.61
22649;BME280;11491;41.942;24.220;2022-11-11T06:02:18;90970.16;;;5.47;86.28
22649;BME280;11491;41.942;24.220;2022-11-11T06:04:45;90970.16;;;5.66;85.52
22649;BME280;11491;41.942;24.220;2022-11-11T06:07:12;90971.25;;;5.65;84.78
22649;BME280;11491;41.942;24.220;2022-11-11T06:09:39;90972.41;;;5.59;84.84
22649;BME280;11491;41.942;24.220;2022-11-11T06:12:05;90969.97;;;5.63;84.93
22649;BME280;11491;41.942;24.220;2022-11-11T06:14:32;90976.63;;;5.79;85.28
22649;BME280;11491;41.942;24.220;2022-11-11T06:17:00;90973.53;;;5.91;85.66
22649;BME280;11491;41.942;24.220;2022-11-11T06:19:27;90976.53;;;6.03;85.29
22649;BME280;11491;41.942;24.220;2022-11-11T06:21:54;90974.81;;;6.12;85.23
22649;BME280;11491;41.942;24.220;2022-11-11T06:24:25;90971.50;;;6.20;85.22
22649;BME280;11491;41.942;24.220;2022-11-11T06:26:51;90979.19;;;6.36;84.30
22649;BME280;11491;41.942;24.220;2022-11-11T06:29:17;90985.94;;;6.47;84.37
22649;BME280;11491;41.942;24.220;2022-11-11T06:31:44;90988.69;;;6.56;84.31
22649;BME280;11491;41.942;24.220;2022-11-11T06:34:12;90987.31;;;6.58;84.30
22649;BME280;11491;41.942;24.220;2022-11-11T06:36:39;90993.88;;;6.66;83.92
22649;BME280;11491;41.942;24.220;2022-11-11T06:39:05;91000.94;;;6.71;83.83
22649;BME280;11491;41.942;24.220;2022-11-11T06:41:32;90988.38;;;6.76;84.41
22649;BME280;11491;41.942;24.220;2022-11-11T06:43:59;90993.09;;;6.93;85.10
22649;BME280;11491;41.942;24.220;2022-11-11T06:46:26;90991.72;;;7.09;85.77
22649;BME280;11491;41.942;24.220;2022-11-11T06:48:52;90993.31;;;7.10;86.55
22649;BME280;11491;41.942;24.220;2022-11-11T06:51:20;90989.53;;;6.98;85.64
22649;BME280;11491;41.942;24.220;2022-11-11T06:53:47;90991.13;;;6.99;85.67
22649;BME280;11491;41.942;24.220;2022-11-11T06:56:14;90988.88;;;7.20;84.93
22649;BME280;11491;41.942;24.220;2022-11-11T06:58:41;90994.38;;;7.37;84.49
22649;BME280;11491;41.942;24.220;2022-11-11T07:01:08;90993.47;;;7.55;84.12
22649;BME280;11491;41.942;24.220;2022-11-11T07:03:35;90989.13;;;7.60;83.24
22649;BME280;11491;41.942;24.220;2022-11-11T07:06:03;90985.53;;;7.78;82.98
22649;BME280;11491;41.942;24.220;2022-11-11T07:08:32;90990.53;;;7.93;83.00
22649;BME280;11491;41.942;24.220;2022-11-11T07:10:58;90989.28;;;7.77;84.67
22649;BME280;11491;41.942;24.220;2022-11-11T07:13:26;90993.41;;;7.83;84.43
22649;BME280;11491;41.942;24.220;2022-11-11T07:15:53;90976.81;;;8.00;84.05
22649;BME280;11491;41.942;24.220;2022-11-11T07:18:20;90976.50;;;8.24;83.92
22649;BME280;11491;41.942;24.220;2022-11-11T07:20:47;90977.22;;;8.38;83.08
22649;BME280;11491;41.942;24.220;2022-11-11T07:23:13;90984.25;;;8.57;82.76
22649;BME280;11491;41.942;24.220;2022-11-11T07:25:43;90982.81;;;8.73;82.66
22649;BME280;11491;41.942;24.220;2022-11-11T07:28:10;90970.66;;;8.90;81.83
22649;BME280;11491;41.942;24.220;2022-11-11T07:30:37;90977.00;;;9.11;81.06
22649;BME280;11491;41.942;24.220;2022-11-11T07:33:04;90976.47;;;9.32;80.49
22649;BME280;11491;41.942;24.220;2022-11-11T07:35:31;90974.50;;;9.55;80.11
22649;BME280;11491;41.942;24.220;2022-11-11T07:37:58;90983.03;;;9.74;79.54
22649;BME280;11491;41.942;24.220;2022-11-11T07:40:24;90986.50;;;9.92;78.87
22649;BME280;11491;41.942;24.220;2022-11-11T07:42:53;90982.25;;;10.08;78.06
22649;BME280;11491;41.942;24.220;2022-11-11T07:45:19;90983.53;;;10.20;78.24
22649;BME280;11491;41.942;24.220;2022-11-11T07:47:46;90977.09;;;10.29;78.69
22649;BME280;11491;41.942;24.220;2022-11-11T07:50:13;90981.34;;;10.39;78.27
22649;BME280;11491;41.942;24.220;2022-11-11T07:52:40;90980.06;;;10.45;78.15
22649;BME280;11491;41.942;24.220;2022-11-11T07:55:07;90976.63;;;10.53;77.47
22649;BME280;11491;41.942;24.220;2022-11-11T07:57:34;90981.97;;;10.53;76.98
22649;BME280;11491;41.942;24.220;2022-11-11T08:00:03;90986.50;;;10.53;76.13
22649;BME280;11491;41.942;24.220;2022-11-11T08:02:30;90983.09;;;10.44;76.18
22649;BME280;11491;41.942;24.220;2022-11-11T08:04:57;90984.63;;;10.45;76.70
22649;BME280;11491;41.942;24.220;2022-11-11T08:07:24;90970.66;;;10.39;77.75
22649;BME280;11491;41.942;24.220;2022-11-11T08:09:50;90976.00;;;10.39;78.61
22649;BME280;11491;41.942;24.220;2022-11-11T08:12:17;90975.50;;;10.46;78.90
22649;BME280;11491;41.942;24.220;2022-11-11T08:15:03;90983.56;;;10.37;77.49
22649;BME280;11491;41.942;24.220;2022-11-11T08:17:30;90983.69;;;10.41;78.00
22649;BME280;11491;41.942;24.220;2022-11-11T08:19:57;90977.25;;;10.50;78.09
22649;BME280;11491;41.942;24.220;2022-11-11T08:22:23;90973.16;;;10.62;77.91
22649;BME280;11491;41.942;24.220;2022-11-11T08:24:50;90977.22;;;10.68;78.16
22649;BME280;11491;41.942;24.220;2022-11-11T08:27:17;90984.28;;;10.72;77.42
22649;BME280;11491;41.942;24.220;2022-11-11T08:29:43;90987.13;;;10.76;78.14
22649;BME280;11491;41.942;24.220;2022-11-11T08:32:11;90981.13;;;10.79;78.31
22649;BME280;11491;41.942;24.220;2022-11-11T08:34:38;90989.81;;;10.76;79.13
22649;BME280;11491;41.942;24.220;2022-11-11T08:37:05;90990.72;;;10.80;79.25
22649;BME280;11491;41.942;24.220;2022-11-11T08:39:31;90993.88;;;10.82;78.88
22649;BME280;11491;41.942;24.220;2022-11-11T08:41:58;91003.75;;;10.90;78.67
22649;BME280;11491;41.942;24.220;2022-11-11T08:44:25;91002.19;;;10.89;78.51
22649;BME280;11491;41.942;24.220;2022-11-11T08:46:52;91004.22;;;10.92;78.87
22649;BME280;11491;41.942;24.220;2022-11-11T08:49:20;91000.31;;;10.90;78.89
22649;BME280;11491;41.942;24.220;2022-11-11T08:51:46;91004.56;;;10.82;78.80
22649;BME280;11491;41.942;24.220;2022-11-11T08:54:13;91009.31;;;10.68;78.08
22649;BME280;11491;41.942;24.220;2022-11-11T08:56:40;91015.94;;;10.53;76.67
22649;BME280;11491;41.942;24.220;2022-11-11T08:59:08;91016.25;;;10.51;76.00
22649;BME280;11491;41.942;24.220;2022-11-11T09:01:36;91020.97;;;10.54;75.69
22649;BME280;11491;41.942;24.220;2022-11-11T09:04:03;91017.81;;;10.52;76.20
22649;BME280;11491;41.942;24.220;2022-11-11T09:06:31;91031.66;;;10.54;77.25
22649;BME280;11491;41.942;24.220;2022-11-11T09:08:57;91023.81;;;10.49;76.32
22649;BME280;11491;41.942;24.220;2022-11-11T09:11:24;91019.09;;;10.46;76.16
22649;BME280;11491;41.942;24.220;2022-11-11T09:13:52;91016.59;;;10.41;76.75
22649;BME280;11491;41.942;24.220;2022-11-11T09:16:18;91012.16;;;10.45;76.36
22649;BME280;11491;41.942;24.220;2022-11-11T09:18:45;91010.44;;;10.49;76.54
22649;BME280;11491;41.942;24.220;2022-11-11T09:21:12;91019.09;;;10.46;76.84
22649;BME280;11491;41.942;24.220;2022-11-11T09:23:40;91008.72;;;10.53;76.50
22649;BME280;11491;41.942;24.220;2022-11-11T09:26:07;91011.66;;;10.61;76.59
22649;BME280;11491;41.942;24.220;2022-11-11T09:28:33;91020.34;;;10.66;76.68
22649;BME280;11491;41.942;24.220;2022-11-11T09:31:01;91011.38;;;10.62;76.59
22649;BME280;11491;41.942;24.220;2022-11-11T09:33:28;91019.41;;;10.71;76.51
22649;BME280;11491;41.942;24.220;2022-11-11T09:35:56;91003.38;;;10.53;75.67
22649;BME280;11491;41.942;24.220;2022-11-11T09:38:23;91005.88;;;10.59;76.64
22649;BME280;11491;41.942;24.220;2022-11-11T09:41:11;91002.41;;;10.67;76.07
22649;BME280;11491;41.942;24.220;2022-11-11T09:43:46;91002.72;;;10.56;76.82
22649;BME280;11491;41.942;24.220;2022-11-11T09:46:21;91003.50;;;10.66;76.37
22649;BME280;11491;41.942;24.220;2022-11-11T09:49:07;91003.63;;;10.78;76.17
22649;BME280;11491;41.942;24.220;2022-11-11T09:51:42;91003.31;;;10.88;76.42
22649;BME280;11491;41.942;24.220;2022-11-11T09:54:16;91002.97;;;10.98;76.02
22649;BME280;11491;41.942;24.220;2022-11-11T09:56:46;90997.44;;;11.04;76.17
22649;BME280;11491;41.942;24.220;2022-11-11T09:59:15;90989.06;;;11.14;75.63
22649;BME280;11491;41.942;24.220;2022-11-11T10:01:47;91000.72;;;11.18;75.24
22649;BME280;11491;41.942;24.220;2022-11-11T10:04:24;91000.38;;;11.28;75.37
22649;BME280;11491;41.942;24.220;2022-11-11T10:06:58;91006.22;;;11.21;74.76
22649;BME280;11491;41.942;24.220;2022-11-11T10:09:32;91001.84;;;11.08;74.96
22649;BME280;11491;41.942;24.220;2022-11-11T10:12:07;91006.72;;;10.97;76.14
22649;BME280;11491;41.942;24.220;2022-11-11T10:14:37;90989.91;;;10.97;75.99
22649;BME280;11491;41.942;24.220;2022-11-11T10:17:12;90996.69;;;10.94;75.89
22649;BME280;11491;41.942;24.220;2022-11-11T10:19:50;90998.25;;;10.95;76.61
22649;BME280;11491;41.942;24.220;2022-11-11T10:22:27;91002.66;;;10.91;76.55
22649;BME280;11491;41.942;24.220;2022-11-11T10:25:07;90994.47;;;10.96;76.29
22649;BME280;11491;41.942;24.220;2022-11-11T10:27:36;90993.47;;;11.10;76.39
22649;BME280;11491;41.942;24.220;2022-11-11T10:30:13;90984.66;;;11.18;76.04
22649;BME280;11491;41.942;24.220;2022-11-11T10:32:45;90989.84;;;11.23;76.18
22649;BME280;11491;41.942;24.220;2022-11-11T10:35:15;90992.78;;;11.30;75.21
22649;BME280;11491;41.942;24.220;2022-11-11T10:37:42;90983.00;;;11.34;75.25
22649;BME280;11491;41.942;24.220;2022-11-11T10:40:16;90981.75;;;11.40;75.38
22649;BME280;11491;41.942;24.220;2022-11-11T10:42:45;90984.34;;;11.49;75.26
22649;BME280;11491;41.942;24.220;2022-11-11T10:45:18;90990.00;;;11.56;74.68
22649;BME280;11491;41.942;24.220;2022-11-11T10:47:53;90981.84;;;11.53;74.18
22649;BME280;11491;41.942;24.220;2022-11-11T10:50:25;90986.44;;;11.43;74.16
22649;BME280;11491;41.942;24.220;2022-11-11T10:52:59;90992.44;;;11.40;74.34
22649;BME280;11491;41.942;24.220;2022-11-11T10:55:31;90982.72;;;11.27;72.84
22649;BME280;11491;41.942;24.220;2022-11-11T10:58:06;90983.00;;;10.87;72.17
22649;BME280;11491;41.942;24.220;2022-11-11T11:00:39;90993.56;;;10.84;73.76
22649;BME280;11491;41.942;24.220;2022-11-11T11:03:12;90988.34;;;10.87;74.17
22649;BME280;11491;41.942;24.220;2022-11-11T11:05:45;90981.75;;;10.85;74.70
22649;BME280;11491;41.942;24.220;2022-11-11T11:08:16;90983.03;;;10.78;75.83
22649;BME280;11491;41.942;24.220;2022-11-11T11:10:47;90973.41;;;10.86;73.52
22649;BME280;11491;41.942;24.220;2022-11-11T11:13:21;90976.38;;;10.93;74.47
22649;BME280;11491;41.942;24.220;2022-11-11T11:15:54;90974.00;;;11.01;74.89
22649;BME280;11491;41.942;24.220;2022-11-11T11:18:22;90966.06;;;11.13;74.98
22649;BME280;11491;41.942;24.220;2022-11-11T11:20:56;90953.44;;;11.22;74.26
22649;BME280;11491;41.942;24.220;2022-11-11T11:23:37;90960.75;;;11.42;72.91
22649;BME280;11491;41.942;24.220;2022-11-11T11:26:06;90955.69;;;11.50;71.23
22649;BME280;11491;41.942;24.220;2022-11-11T11:28:51;90961.31;;;11.57;72.11
22649;BME280;11491;41.942;24.220;2022-11-11T11:31:33;90958.22;;;11.46;71.00
22649;BME280;11491;41.942;24.220;2022-11-11T11:34:01;90951.88;;;11.21;69.30
22649;BME280;11491;41.942;24.220;2022-11-11T11:36:28;90956.47;;;11.12;70.59
22649;BME280;11491;41.942;24.220;2022-11-11T11:38:55;90950.72;;;11.01;69.14
22649;BME280;11491;41.942;24.220;2022-11-11T11:41:36;90960.94;;;10.99;69.93
22649;BME280;11491;41.942;24.220;2022-11-11T11:44:23;90925.72;;;10.88;69.94
22649;BME280;11491;41.942;24.220;2022-11-11T11:46:52;90955.72;;;11.03;69.13
22649;BME280;11491;41.942;24.220;2022-11-11T11:49:29;90964.28;;;10.87;69.68
22649;BME280;11491;41.942;24.220;2022-11-11T11:52:05;90956.59;;;10.77;70.24
22649;BME280;11491;41.942;24.220;2022-11-11T11:54:48;90966.50;;;10.68;71.68
22649;BME280;11491;41.942;24.220;2022-11-11T11:57:26;90971.91;;;10.59;71.40
22649;BME280;11491;41.942;24.220;2022-11-11T12:00:02;90965.94;;;10.53;72.30
22649;BME280;11491;41.942;24.220;2022-11-11T12:05:41;90974.72;;;10.63;73.13
22649;BME280;11491;41.942;24.220;2022-11-11T12:08:21;90966.84;;;10.57;72.38
22649;BME280;11491;41.942;24.220;2022-11-11T12:10:58;90970.19;;;10.37;72.44
22649;BME280;11491;41.942;24.220;2022-11-11T12:13:38;90963.13;;;10.41;72.70
22649;BME280;11491;41.942;24.220;2022-11-11T12:16:22;90955.38;;;10.22;73.79
22649;BME280;11491;41.942;24.220;2022-11-11T12:19:06;90958.69;;;10.10;74.29
22649;BME280;11491;41.942;24.220;2022-11-11T12:21:41;90966.72;;;10.28;76.25
22649;BME280;11491;41.942;24.220;2022-11-11T12:24:21;90959.66;;;10.32;76.75
22649;BME280;11491;41.942;24.220;2022-11-11T12:27:08;90953.97;;;10.42;77.19
22649;BME280;11491;41.942;24.220;2022-11-11T12:29:51;90957.91;;;10.45;76.56
22649;BME280;11491;41.942;24.220;2022-11-11T12:32:35;90956.97;;;10.41;76.49
22649;BME280;11491;41.942;24.220;2022-11-11T12:35:16;90959.31;;;10.42;76.14
22649;BME280;11491;41.942;24.220;2022-11-11T12:37:51;90954.94;;;10.46;75.58
22649;BME280;11491;41.942;24.220;2022-11-11T12:40:33;90952.41;;;10.41;75.89
22649;BME280;11491;41.942;24.220;2022-11-11T12:43:10;90956.03;;;10.28;76.97
22649;BME280;11491;41.942;24.220;2022-11-11T12:45:46;90948.31;;;10.35;77.33
22649;BME280;11491;41.942;24.220;2022-11-11T12:48:27;90956.19;;;10.40;77.75
22649;BME280;11491;41.942;24.220;2022-11-11T12:51:01;90962.81;;;10.34;78.39
22649;BME280;11491;41.942;24.220;2022-11-11T12:53:33;90968.44;;;10.24;78.57
22649;BME280;11491;41.942;24.220;2022-11-11T12:56:07;90968.59;;;10.19;79.28
22649;BME280;11491;41.942;24.220;2022-11-11T12:58:45;90963.69;;;10.21;79.52
22649;BME280;11491;41.942;24.220;2022-11-11T13:01:19;90961.50;;;10.23;79.12
22649;BME280;11491;41.942;24.220;2022-11-11T13:04:01;90959.00;;;10.18;79.54
22649;BME280;11491;41.942;24.220;2022-11-11T13:06:43;90959.94;;;10.22;80.01
22649;BME280;11491;41.942;24.220;2022-11-11T13:12:18;90962.91;;;10.03;80.79
22649;BME280;11491;41.942;24.220;2022-11-11T13:14:56;90969.34;;;9.93;81.30
22649;BME280;11491;41.942;24.220;2022-11-11T13:17:23;90968.69;;;9.79;81.76
22649;BME280;11491;41.942;24.220;2022-11-11T13:19:53;90967.00;;;9.74;82.29
22649;BME280;11491;41.942;24.220;2022-11-11T13:22:24;90964.63;;;9.73;82.27
22649;BME280;11491;41.942;24.220;2022-11-11T13:24:52;90969.97;;;9.73;82.76
22649;BME280;11491;41.942;24.220;2022-11-11T13:27:26;90966.81;;;9.62;83.04